Time;durP1;ratioP1;P1;durP2;ratioP2;P2;SDS_P1;SDS_P2;PMS_P1;PMS_P2;Temp;Humidity;BMP_temperature;BMP_pressure;BME280_temperature;BME280_humidity;BME280_pressure;Samples;Min_cycle;Max_cycle;Signal;HPM_P1;HPM_P2
2023/08/03 00:01:29;;;;;;;0.50;0.50;;;;;;;21.77;64.75;98389.88;5074169;28;20049;-64
2023/08/03 00:04:00;;;;;;;0.35;0.35;;;;;;;21.77;64.93;98392.47;5073006;28;20458;-64
2023/08/03 00:06:30;;;;;;;0.50;0.50;;;;;;;21.75;64.89;98396.94;5074177;28;20055;-64
2023/08/03 00:08:58;;;;;;;0.70;0.63;;;;;;;21.77;65.21;98389.88;5073982;28;20102;-63
2023/08/03 00:11:27;;;;;;;0.40;0.40;;;;;;;21.77;65.47;98395.06;5074227;28;20041;-64
2023/08/03 00:13:56;;;;;;;0.60;0.60;;;;;;;21.82;65.60;98406.81;5074059;28;20067;-63
2023/08/03 00:16:27;;;;;;;0.38;0.38;;;;;;;21.85;65.59;98392.84;5073972;28;20052;-64
2023/08/03 00:18:56;;;;;;;0.50;0.50;;;;;;;21.88;65.54;98393.44;5074019;28;20044;-64
2023/08/03 00:21:25;;;;;;;0.50;0.50;;;;;;;21.83;65.53;98390.31;5073831;28;20123;-64
2023/08/03 00:23:54;;;;;;;0.68;0.68;;;;;;;21.88;65.56;98395.22;5074276;28;20382;-65
2023/08/03 00:26:22;;;;;;;0.40;0.40;;;;;;;21.80;65.55;98384.47;5073942;28;20067;-63
2023/08/03 00:28:52;;;;;;;0.50;0.50;;;;;;;21.73;65.31;98378.88;5073819;28;20087;-64
2023/08/03 00:31:21;;;;;;;0.40;0.40;;;;;;;21.72;65.49;98386.75;5072613;28;20048;-64
2023/08/03 00:33:52;;;;;;;0.43;0.43;;;;;;;21.67;66.39;98388.81;5074005;28;20036;-64
2023/08/03 00:36:21;;;;;;;0.52;0.52;;;;;;;21.61;66.74;98392.66;5073861;28;20040;-64
2023/08/03 00:38:49;;;;;;;0.75;0.63;;;;;;;21.50;67.79;98391.72;5074072;28;20043;-64
2023/08/03 00:41:18;;;;;;;0.50;0.50;;;;;;;21.44;68.27;98397.28;5073902;28;20406;-64
2023/08/03 00:43:47;;;;;;;0.43;0.43;;;;;;;21.40;68.26;98404.47;5073615;28;20048;-64
2023/08/03 00:46:16;;;;;;;0.93;0.93;;;;;;;21.35;68.58;98404.72;5074013;28;20044;-64
2023/08/03 00:48:45;;;;;;;1.20;1.05;;;;;;;21.25;69.09;98401.09;5073767;28;20131;-62
2023/08/03 00:51:15;;;;;;;0.93;0.85;;;;;;;21.19;69.36;98413.59;5072323;28;20044;-65
2023/08/03 00:53:46;;;;;;;0.55;0.55;;;;;;;21.14;69.67;98400.94;5072685;28;20048;-64
2023/08/03 00:56:16;;;;;;;0.82;0.82;;;;;;;21.09;70.05;98400.38;5073593;28;20056;-64
2023/08/03 00:58:45;;;;;;;0.70;0.70;;;;;;;20.98;70.26;98389.84;5073863;28;20064;-64
2023/08/03 01:01:14;;;;;;;0.40;0.40;;;;;;;20.93;70.40;98394.47;5072931;28;20142;-63
2023/08/03 01:03:43;;;;;;;0.50;0.50;;;;;;;20.94;70.96;98388.38;5073385;28;20040;-65
2023/08/03 01:06:12;;;;;;;0.50;0.50;;;;;;;20.87;71.13;98381.91;5073713;28;20055;-65
2023/08/03 01:08:42;;;;;;;1.17;1.00;;;;;;;20.81;71.46;98373.66;5073423;28;20037;-64
2023/08/03 01:11:11;;;;;;;0.60;0.60;;;;;;;20.73;71.69;98379.38;5073658;28;20383;-64
2023/08/03 01:13:40;;;;;;;0.65;0.65;;;;;;;20.69;72.04;98383.06;5073263;28;20037;-65
2023/08/03 01:16:10;;;;;;;0.63;0.63;;;;;;;20.66;72.11;98384.06;5072133;28;20066;-64
2023/08/03 01:18:42;;;;;;;0.52;0.52;;;;;;;20.61;72.20;98375.75;5073281;28;20071;-64
2023/08/03 01:21:16;;;;;;;0.60;0.60;;;;;;;20.55;72.50;98381.31;5072139;28;20049;-64
2023/08/03 01:23:47;;;;;;;0.52;0.52;;;;;;;20.53;72.59;98382.34;5073184;28;20052;-64
2023/08/03 01:26:16;;;;;;;0.50;0.50;;;;;;;20.48;73.10;98377.44;5072100;28;20106;-64
2023/08/03 01:28:44;;;;;;;0.75;0.75;;;;;;;20.42;73.29;98374.41;5073085;28;20044;-64
2023/08/03 01:31:13;;;;;;;2.35;1.13;;;;;;;20.41;73.71;98372.72;5071915;28;20039;-64
2023/08/03 01:33:42;;;;;;;0.40;0.40;;;;;;;20.32;73.96;98368.13;5072520;28;20037;-63
2023/08/03 01:36:11;;;;;;;0.60;0.60;;;;;;;20.34;74.07;98358.50;5072912;28;20059;-64
2023/08/03 01:38:40;;;;;;;0.47;0.47;;;;;;;20.53;73.12;98361.59;5071868;28;20132;-65
2023/08/03 01:41:10;;;;;;;0.68;0.68;;;;;;;20.69;72.28;98362.31;5073403;28;20068;-64
2023/08/03 01:43:40;;;;;;;0.50;0.50;;;;;;;20.79;71.85;98358.22;5073164;28;20063;-63
2023/08/03 01:46:09;;;;;;;0.60;0.60;;;;;;;20.94;71.42;98362.44;5073663;28;20381;-63
2023/08/03 01:48:38;;;;;;;0.50;0.50;;;;;;;20.97;71.29;98354.44;5071902;28;20044;-64
2023/08/03 01:51:07;;;;;;;0.93;0.93;;;;;;;21.02;71.08;98357.56;5071786;28;20115;-64
2023/08/03 01:53:36;;;;;;;0.55;0.55;;;;;;;21.02;70.94;98343.78;5073590;28;20040;-65
2023/08/03 01:56:06;;;;;;;0.40;0.40;;;;;;;21.03;70.85;98351.47;5072072;28;20662;-65
2023/08/03 01:58:36;;;;;;;0.40;0.40;;;;;;;21.11;70.31;98348.41;5073235;28;20083;-65
2023/08/03 02:01:05;;;;;;;0.47;0.47;;;;;;;21.11;70.11;98348.41;5073004;28;20265;-65
2023/08/03 02:03:33;;;;;;;0.63;0.63;;;;;;;21.13;70.10;98347.38;5073454;28;20133;-65
2023/08/03 02:06:03;;;;;;;0.93;0.50;;;;;;;21.18;69.62;98341.91;5072886;28;20384;-64
2023/08/03 02:08:32;;;;;;;0.52;0.52;;;;;;;21.21;69.81;98347.69;5071686;28;20045;-65
2023/08/03 02:11:01;;;;;;;0.40;0.40;;;;;;;21.25;69.54;98351.78;5072726;28;20124;-64
2023/08/03 02:13:30;;;;;;;0.40;0.40;;;;;;;21.24;69.44;98352.69;5076212;28;20051;-65
2023/08/03 02:16:02;;;;;;;0.32;0.32;;;;;;;21.23;69.58;98358.84;5075124;28;20045;-65
2023/08/03 02:18:50;;;;;;;0.60;0.60;;;;;;;21.27;69.62;98365.47;5058700;28;20049;-63
2023/08/03 02:21:19;;;;;;;0.80;0.70;;;;;;;21.30;69.51;98364.47;5075045;28;20440;-64
2023/08/03 02:23:48;;;;;;;0.70;0.70;;;;;;;21.35;69.31;98378.78;5076751;28;20386;-65
2023/08/03 02:26:17;;;;;;;0.75;0.75;;;;;;;21.42;69.29;98378.41;5076345;28;20132;-64
2023/08/03 02:28:46;;;;;;;0.40;0.40;;;;;;;21.49;69.35;98382.25;5076489;28;20040;-65
2023/08/03 02:31:17;;;;;;;0.73;0.68;;;;;;;21.52;69.09;98388.09;5075961;28;20120;-64
2023/08/03 02:33:51;;;;;;;0.50;0.50;;;;;;;21.54;69.26;98387.97;5076064;28;20056;-64
2023/08/03 02:36:28;;;;;;;0.50;0.50;;;;;;;21.56;69.03;98392.13;5075012;28;20074;-64
2023/08/03 02:39:01;;;;;;;3.30;1.75;;;;;;;21.60;68.95;98393.59;5075011;28;20109;-64
2023/08/03 02:41:31;;;;;;;0.50;0.50;;;;;;;21.63;69.08;98390.81;5076131;28;20068;-64
2023/08/03 02:44:01;;;;;;;0.50;0.50;;;;;;;21.67;68.83;98394.00;5074658;28;20135;-64
2023/08/03 02:46:34;;;;;;;0.50;0.50;;;;;;;21.67;68.75;98389.66;5074846;28;20122;-65
2023/08/03 02:49:04;;;;;;;0.68;0.68;;;;;;;21.72;68.79;98387.59;5075719;28;20048;-62
2023/08/03 02:51:33;;;;;;;0.77;0.77;;;;;;;21.74;68.93;98385.72;5074407;28;20036;-64
2023/08/03 02:54:02;;;;;;;1.00;0.80;;;;;;;21.70;69.28;98378.22;5074483;28;20044;-66
2023/08/03 02:56:36;;;;;;;0.70;0.70;;;;;;;21.70;69.73;98383.44;5075627;28;20071;-65
2023/08/03 02:59:05;;;;;;;0.40;0.40;;;;;;;21.66;70.27;98392.38;5074337;28;20502;-65
2023/08/03 03:01:45;;;;;;;0.40;0.40;;;;;;;21.62;70.53;98391.72;5075527;28;20045;-65
2023/08/03 03:04:18;;;;;;;0.52;0.52;;;;;;;21.61;70.87;98397.03;5075424;28;20055;-65
2023/08/03 03:06:48;;;;;;;0.77;0.70;;;;;;;21.58;70.94;98399.81;5075567;28;20063;-65
2023/08/03 03:09:18;;;;;;;0.68;0.68;;;;;;;21.56;71.15;98401.69;5076126;28;20071;-65
2023/08/03 03:11:55;;;;;;;0.40;0.40;;;;;;;21.53;71.48;98396.69;5074017;28;20036;-65
2023/08/03 03:14:31;;;;;;;0.50;0.50;;;;;;;21.55;71.29;98407.81;5075486;28;20406;-64
2023/08/03 03:17:01;;;;;;;0.50;0.50;;;;;;;21.54;71.25;98408.75;5075157;28;20045;-64
2023/08/03 03:19:32;;;;;;;0.50;0.50;;;;;;;21.57;71.23;98408.56;5074406;28;20380;-65
2023/08/03 03:22:06;;;;;;;0.65;0.65;;;;;;;21.53;71.51;98407.06;5075410;28;20437;-65
2023/08/03 03:24:35;;;;;;;0.50;0.50;;;;;;;21.52;71.69;98411.47;5073395;28;20055;-65
2023/08/03 03:27:04;;;;;;;0.47;0.47;;;;;;;21.51;71.92;98409.78;5073951;28;20581;-65
2023/08/03 03:29:38;;;;;;;0.40;0.40;;;;;;;21.56;72.02;98412.06;5074930;28;20280;-64
2023/08/03 03:32:09;;;;;;;0.50;0.50;;;;;;;21.61;72.12;98410.00;5073922;28;20072;-64
2023/08/03 03:34:38;;;;;;;0.65;0.65;;;;;;;21.66;71.97;98403.59;5074795;28;20394;-65
2023/08/03 03:37:11;;;;;;;1.23;0.93;;;;;;;21.69;72.02;98397.38;5074710;28;20052;-65
2023/08/03 03:39:40;;;;;;;0.50;0.50;;;;;;;21.70;72.28;98409.41;5074922;28;20040;-64
2023/08/03 03:42:15;;;;;;;0.85;0.80;;;;;;;21.72;72.46;98412.72;5073826;28;20127;-65
2023/08/03 03:44:44;;;;;;;0.40;0.40;;;;;;;21.73;72.37;98406.59;5073969;28;20043;-64
2023/08/03 03:47:15;;;;;;;0.50;0.50;;;;;;;21.74;72.54;98419.47;5073389;28;20062;-65
2023/08/03 03:49:47;;;;;;;0.50;0.50;;;;;;;21.82;72.29;98418.97;5073345;28;20055;-64
2023/08/03 03:52:16;;;;;;;0.65;0.65;;;;;;;21.87;71.88;98414.34;5074986;28;20094;-64
2023/08/03 03:54:45;;;;;;;0.73;0.68;;;;;;;21.91;71.71;98413.19;5073607;28;20047;-64
2023/08/03 03:57:14;;;;;;;0.40;0.40;;;;;;;21.93;71.60;98411.34;5073183;28;20127;-64
2023/08/03 03:59:43;;;;;;;0.50;0.50;;;;;;;21.97;71.47;98408.44;5074811;28;20129;-64
2023/08/03 04:02:12;;;;;;;0.40;0.40;;;;;;;22.00;71.32;98412.59;5074221;28;20045;-64
2023/08/03 04:04:42;;;;;;;0.60;0.60;;;;;;;22.01;70.95;98409.06;5074508;28;20490;-64
2023/08/03 04:07:11;;;;;;;0.52;0.52;;;;;;;22.03;71.18;98405.41;5072966;28;20052;-64
2023/08/03 04:09:40;;;;;;;0.50;0.50;;;;;;;22.06;70.92;98411.34;5074210;28;20036;-64
2023/08/03 04:12:09;;;;;;;0.60;0.60;;;;;;;22.08;70.87;98414.66;5074118;28;20040;-64
2023/08/03 04:14:38;;;;;;;0.57;0.57;;;;;;;22.08;70.91;98423.28;5072941;28;20044;-64
2023/08/03 04:17:07;;;;;;;0.57;0.57;;;;;;;22.08;70.90;98425.06;5074428;28;20049;-65
2023/08/03 04:19:38;;;;;;;0.55;0.55;;;;;;;22.08;70.97;98440.66;5073958;28;20064;-66
2023/08/03 04:22:09;;;;;;;0.60;0.60;;;;;;;22.09;70.94;98442.31;5072791;28;20128;-65
2023/08/03 04:24:38;;;;;;;0.60;0.60;;;;;;;22.10;70.86;98444.81;5073968;28;20048;-64
2023/08/03 04:27:09;;;;;;;0.70;0.70;;;;;;;22.11;71.11;98446.47;5073972;28;20048;-64
2023/08/03 04:29:40;;;;;;;0.60;0.60;;;;;;;22.11;70.93;98440.44;5073728;28;20048;-65
2023/08/03 04:32:11;;;;;;;0.50;0.50;;;;;;;22.14;71.04;98456.69;5073759;28;20053;-64
2023/08/03 04:34:40;;;;;;;0.50;0.50;;;;;;;22.16;71.09;98462.59;5071942;28;20056;-65
2023/08/03 04:37:12;;;;;;;11.02;1.35;;;;;;;22.13;71.05;98460.22;5072882;28;20401;-63
2023/08/03 04:39:42;;;;;;;1.45;0.77;;;;;;;22.08;71.29;98467.47;5073669;28;20052;-64
2023/08/03 04:42:13;;;;;;;0.50;0.50;;;;;;;22.04;71.31;98458.22;5072794;28;20492;-65
2023/08/03 04:44:42;;;;;;;2.28;1.35;;;;;;;22.00;71.27;98462.78;5072693;28;20040;-64
2023/08/03 04:47:12;;;;;;;0.55;0.55;;;;;;;22.00;71.28;98467.16;5073829;28;20044;-64
2023/08/03 04:49:41;;;;;;;0.50;0.50;;;;;;;21.99;71.23;98462.91;5073530;28;20429;-64
2023/08/03 04:52:14;;;;;;;0.70;0.70;;;;;;;21.99;71.35;98468.09;5072381;28;20095;-63
2023/08/03 04:54:45;;;;;;;0.70;0.65;;;;;;;22.00;71.38;98467.16;5073493;28;20110;-65
2023/08/03 04:57:15;;;;;;;0.50;0.50;;;;;;;22.01;71.37;98469.66;5072310;28;20052;-64
2023/08/03 04:59:44;;;;;;;0.50;0.50;;;;;;;21.99;71.40;98473.28;5072349;28;20067;-65
2023/08/03 05:02:13;;;;;;;0.50;0.50;;;;;;;22.04;71.07;98466.03;5072485;28;20044;-64
2023/08/03 05:04:42;;;;;;;1.73;0.70;;;;;;;22.06;71.03;98453.75;5073646;28;20437;-64
2023/08/03 05:07:15;;;;;;;0.40;0.40;;;;;;;22.09;71.41;98473.50;5074234;28;20416;-64
2023/08/03 05:09:46;;;;;;;1.70;0.75;;;;;;;22.11;71.97;98487.22;5073611;28;20132;-65
2023/08/03 05:12:16;;;;;;;0.60;0.60;;;;;;;22.07;72.52;98477.97;5073890;28;20469;-65
2023/08/03 05:14:45;;;;;;;1.45;1.05;;;;;;;22.04;72.52;98481.63;5072443;28;20414;-65
2023/08/03 05:17:14;;;;;;;0.68;0.68;;;;;;;22.10;72.65;98485.59;5073618;28;20143;-63
2023/08/03 05:19:43;;;;;;;0.40;0.40;;;;;;;22.07;73.26;98486.63;5073474;28;20128;-64
2023/08/03 05:22:11;;;;;;;0.68;0.60;;;;;;;22.08;73.79;98483.06;5073582;28;20068;-65
2023/08/03 05:24:42;;;;;;;0.60;0.60;;;;;;;22.05;74.09;98488.50;5073220;28;20041;-64
2023/08/03 05:27:11;;;;;;;0.52;0.52;;;;;;;22.05;74.28;98492.84;5073341;28;20132;-64
2023/08/03 05:29:44;;;;;;;0.75;0.75;;;;;;;21.94;74.17;98496.16;5073205;28;20051;-65
2023/08/03 05:32:13;;;;;;;0.88;0.73;;;;;;;21.93;73.93;98500.50;5073148;28;20037;-65
2023/08/03 05:34:41;;;;;;;0.40;0.40;;;;;;;21.94;73.77;98501.34;5072885;28;20514;-65
2023/08/03 05:37:10;;;;;;;0.80;0.80;;;;;;;21.95;73.79;98506.44;5073179;28;20397;-64
2023/08/03 05:39:41;;;;;;;0.57;0.57;;;;;;;21.95;73.88;98508.22;5073679;28;20072;-64
2023/08/03 05:42:14;;;;;;;1.05;0.90;;;;;;;21.94;74.14;98512.56;5073038;28;20052;-65
2023/08/03 05:44:42;;;;;;;0.77;0.77;;;;;;;21.92;74.49;98516.19;5072131;28;20052;-65
2023/08/03 05:47:14;;;;;;;0.57;0.57;;;;;;;21.92;74.62;98514.44;5075556;28;20044;-63
2023/08/03 05:49:43;;;;;;;0.52;0.52;;;;;;;21.91;75.07;98517.13;5075947;28;20075;-64
2023/08/03 05:52:13;;;;;;;0.68;0.60;;;;;;;21.89;75.33;98522.44;5076818;28;20036;-64
2023/08/03 05:54:47;;;;;;;0.65;0.60;;;;;;;21.87;75.33;98526.06;5076751;28;20494;-64
2023/08/03 05:57:19;;;;;;;0.60;0.60;;;;;;;21.87;75.70;98523.47;5077029;28;20040;-65
2023/08/03 05:59:47;;;;;;;1.98;1.00;;;;;;;21.85;75.61;98522.72;5076965;28;20037;-64
2023/08/03 06:02:30;;;;;;;0.40;0.40;;;;;;;21.85;75.48;98544.34;5076506;28;20131;-64
2023/08/03 06:04:59;;;;;;;1.67;1.58;;;;;;;21.85;75.33;98548.72;5076554;28;20055;-65
2023/08/03 06:07:28;;;;;;;0.40;0.40;;;;;;;21.83;75.09;98550.56;5076449;28;20056;-65
2023/08/03 06:09:58;;;;;;;1.35;0.70;;;;;;;21.80;74.91;98550.75;5088012;28;20048;-64
2023/08/03 06:12:29;;;;;;;0.68;0.65;;;;;;;21.81;74.92;98562.81;5096701;28;20044;-66
2023/08/03 06:14:57;;;;;;;0.95;0.55;;;;;;;21.77;75.02;98556.13;5096871;28;20043;-65
2023/08/03 06:17:27;;;;;;;1.90;1.07;;;;;;;21.77;74.94;98556.13;5095283;28;20047;-65
2023/08/03 06:19:56;;;;;;;1.38;1.27;;;;;;;21.79;74.94;98559.44;5097029;28;20284;-64
2023/08/03 06:22:26;;;;;;;0.43;0.43;;;;;;;21.80;75.17;98572.38;5087421;28;20490;-65
2023/08/03 06:25:01;;;;;;;0.50;0.50;;;;;;;21.80;75.02;98581.91;5095392;28;20083;-64
2023/08/03 06:27:29;;;;;;;0.77;0.77;;;;;;;21.80;75.24;98584.50;5096190;28;20040;-64
2023/08/03 06:29:58;;;;;;;0.67;0.67;;;;;;;21.79;75.05;98591.47;5095483;28;20044;-65
2023/08/03 06:32:32;;;;;;;0.40;0.40;;;;;;;21.78;75.12;98610.59;5093627;28;20046;-65
2023/08/03 06:35:01;;;;;;;1.27;1.05;;;;;;;21.76;75.25;98612.44;5081264;28;20144;-64
2023/08/03 06:37:30;;;;;;;0.50;0.50;;;;;;;21.72;75.12;98599.75;5075798;28;20051;-64
2023/08/03 06:40:00;;;;;;;1.25;0.60;;;;;;;21.67;74.91;98581.00;5075967;28;20039;-64
2023/08/03 06:42:29;;;;;;;0.60;0.60;;;;;;;21.65;74.98;98572.50;5076215;28;20040;-64
2023/08/03 06:44:58;;;;;;;0.47;0.47;;;;;;;21.66;75.11;98579.34;5075789;28;20486;-64
2023/08/03 06:47:27;;;;;;;0.52;0.52;;;;;;;21.66;74.87;98590.59;5076269;28;20502;-64
2023/08/03 06:49:56;;;;;;;0.43;0.43;;;;;;;21.70;74.65;98586.84;5075945;28;20125;-65
2023/08/03 06:52:26;;;;;;;0.43;0.43;;;;;;;21.73;74.77;98591.88;5075579;28;20490;-65
2023/08/03 06:54:55;;;;;;;0.80;0.80;;;;;;;21.72;75.03;98586.75;5075880;28;20044;-63
2023/08/03 06:57:25;;;;;;;1.30;0.70;;;;;;;21.69;75.37;98590.38;5074976;28;20040;-64
2023/08/03 06:59:55;;;;;;;1.42;1.33;;;;;;;21.69;75.40;98584.38;5075898;28;20447;-64
2023/08/03 07:02:24;;;;;;;1.75;1.00;;;;;;;21.69;75.57;98586.97;5075739;28;20044;-64
2023/08/03 07:04:52;;;;;;;0.75;0.75;;;;;;;21.74;75.69;98590.91;5075494;28;20051;-64
2023/08/03 07:07:21;;;;;;;2.30;0.70;;;;;;;21.76;76.32;98596.03;5075609;28;20430;-65
2023/08/03 07:09:50;;;;;;;0.50;0.50;;;;;;;21.76;76.76;98601.22;5075729;28;20079;-65
2023/08/03 07:12:19;;;;;;;0.80;0.60;;;;;;;21.77;77.04;98603.72;5074360;28;20434;-64
2023/08/03 07:14:49;;;;;;;0.98;0.95;;;;;;;21.80;76.82;98597.50;5075195;28;20289;-64
2023/08/03 07:17:19;;;;;;;0.77;0.60;;;;;;;21.86;76.57;98597.13;5075885;28;20041;-65
2023/08/03 07:19:51;;;;;;;0.30;0.30;;;;;;;21.96;76.41;98603.41;5075042;28;20040;-63
2023/08/03 07:22:20;;;;;;;0.47;0.47;;;;;;;22.02;76.41;98603.03;5083322;28;20482;-63
2023/08/03 07:24:49;;;;;;;0.50;0.50;;;;;;;22.07;76.15;98606.16;5095221;28;20405;-65
2023/08/03 07:27:18;;;;;;;0.38;0.38;;;;;;;22.12;75.78;98605.88;5095282;28;20040;-65
2023/08/03 07:29:47;;;;;;;0.50;0.50;;;;;;;22.17;75.08;98617.63;5095226;28;20040;-64
2023/08/03 07:32:17;;;;;;;0.47;0.47;;;;;;;22.26;74.52;98617.03;5094996;28;20068;-64
2023/08/03 07:34:46;;;;;;;0.40;0.40;;;;;;;22.32;74.16;98626.19;5095038;28;20055;-64
2023/08/03 07:37:15;;;;;;;0.35;0.35;;;;;;;22.41;73.64;98628.22;5094400;28;20053;-64
2023/08/03 07:39:44;;;;;;;1.23;1.13;;;;;;;22.48;73.53;98627.69;5094974;28;20045;-65
2023/08/03 07:42:12;;;;;;;7.13;2.10;;;;;;;22.57;73.27;98627.09;5094936;28;20067;-65
2023/08/03 07:44:41;;;;;;;0.88;0.88;;;;;;;22.70;72.87;98621.91;5094850;28;20044;-65
2023/08/03 07:47:13;;;;;;;0.40;0.40;;;;;;;22.79;72.46;98626.53;5095263;28;20517;-64
2023/08/03 07:49:44;;;;;;;0.70;0.70;;;;;;;22.86;72.05;98632.16;5095392;28;20040;-64
2023/08/03 07:52:12;;;;;;;0.57;0.57;;;;;;;23.01;71.43;98623.31;5094936;28;20070;-64
2023/08/03 07:54:42;;;;;;;0.55;0.55;;;;;;;23.13;70.89;98619.88;5094619;28;20507;-64
2023/08/03 07:57:15;;;;;;;0.40;0.40;;;;;;;23.41;70.52;98624.03;5095215;28;20044;-64
2023/08/03 07:59:49;;;;;;;0.85;0.85;;;;;;;23.62;69.59;98622.50;5094970;28;20135;-63
2023/08/03 08:02:19;;;;;;;0.68;0.68;;;;;;;23.74;68.47;98622.47;5094919;28;20051;-64
2023/08/03 08:04:52;;;;;;;1.17;1.08;;;;;;;23.99;67.96;98617.16;5094830;28;20040;-64
2023/08/03 08:07:22;;;;;;;0.40;0.40;;;;;;;24.21;67.38;98626.09;5094505;28;20143;-64
2023/08/03 08:09:53;;;;;;;;;;;;;;;24.41;66.47;98628.06;5094842;28;20101;-64
2023/08/03 08:12:21;;;;;;;0.73;0.73;;;;;;;24.75;65.90;98648.09;5094627;28;19927;-64
2023/08/03 08:14:50;;;;;;;0.50;0.50;;;;;;;24.98;64.72;98644.59;5094271;28;20036;-64
2023/08/03 08:17:19;;;;;;;0.63;0.63;;;;;;;25.06;65.08;98641.41;5094172;28;20046;-65
2023/08/03 08:19:48;;;;;;;0.82;0.82;;;;;;;24.84;64.68;98655.25;5094747;28;20059;-65
2023/08/03 08:22:18;;;;;;;0.52;0.52;;;;;;;24.69;64.49;98664.19;5095018;28;20390;-64
2023/08/03 08:24:47;;;;;;;0.43;0.43;;;;;;;24.63;64.79;98659.44;5094464;28;20067;-64
2023/08/03 08:27:17;;;;;;;0.75;0.70;;;;;;;24.65;64.82;98673.22;5094079;28;20155;-64
2023/08/03 08:29:47;;;;;;;0.68;0.68;;;;;;;24.67;65.01;98675.72;5093108;28;20089;-65
2023/08/03 08:32:16;;;;;;;6.78;1.48;;;;;;;24.70;64.89;98676.31;5094004;28;20040;-64
2023/08/03 08:34:45;;;;;;;0.60;0.60;;;;;;;24.77;65.16;98688.00;5093846;28;20076;-65
2023/08/03 08:37:13;;;;;;;0.68;0.52;;;;;;;24.77;64.91;98688.00;5094259;28;20490;-65
2023/08/03 08:39:45;;;;;;;0.57;0.57;;;;;;;24.80;64.39;98692.16;5094420;28;20398;-65
2023/08/03 08:42:15;;;;;;;0.63;0.63;;;;;;;24.66;64.22;98690.53;5093825;28;20054;-65
2023/08/03 08:44:43;;;;;;;;;;;;;;;24.51;64.74;98681.22;5094756;28;20134;-64
2023/08/03 08:47:12;;;;;;;0.80;0.80;;;;;;;24.49;65.49;98680.50;5093778;28;19966;-65
2023/08/03 08:49:41;;;;;;;0.50;0.50;;;;;;;24.50;65.81;98679.53;5093746;28;20356;-65
2023/08/03 08:52:16;;;;;;;0.98;0.82;;;;;;;24.40;65.59;98678.59;5093970;28;20473;-64
2023/08/03 08:54:47;;;;;;;0.55;0.55;;;;;;;24.35;65.56;98675.47;5093715;28;20047;-64
2023/08/03 08:57:19;;;;;;;0.50;0.50;;;;;;;24.30;65.88;98677.59;5093701;28;20048;-65
2023/08/03 09:00:09;;;;;;;0.50;0.50;;;;;;;24.25;66.22;98675.31;5094000;28;20051;-64
2023/08/03 09:02:38;;;;;;;2.58;1.63;;;;;;;24.22;66.36;98682.50;5093703;28;20119;-65
2023/08/03 09:05:10;;;;;;;1.20;0.90;;;;;;;24.34;66.42;98684.22;5093851;28;20090;-65
2023/08/03 09:07:39;;;;;;;1.58;1.40;;;;;;;24.36;65.62;98684.94;5093618;28;20048;-65
2023/08/03 09:10:10;;;;;;;0.60;0.60;;;;;;;24.45;65.68;98687.72;5093575;28;20042;-64
2023/08/03 09:12:42;;;;;;;1.20;1.05;;;;;;;24.69;65.55;98694.72;5093859;28;20110;-64
2023/08/03 09:15:11;;;;;;;0.40;0.40;;;;;;;24.96;64.53;98700.50;5093763;28;20044;-64
2023/08/03 09:17:42;;;;;;;0.50;0.50;;;;;;;25.13;63.95;98706.13;5093410;28;20040;-65
2023/08/03 09:20:25;;;;;;;0.60;0.60;;;;;;;25.05;63.28;98718.13;5093585;28;20048;-64
2023/08/03 09:22:57;;;;;;;1.63;1.08;;;;;;;25.04;63.42;98711.22;5097850;28;20036;-64
2023/08/03 09:25:31;;;;;;;1.58;0.70;;;;;;;25.21;63.50;98716.00;5097805;28;20040;-64
2023/08/03 09:28:09;;;;;;;0.88;0.70;;;;;;;25.31;62.89;98728.22;5098387;28;20124;-64
2023/08/03 09:30:50;;;;;;;0.70;0.70;;;;;;;25.17;62.88;98738.88;5097444;28;20036;-65
2023/08/03 09:33:21;;;;;;;0.88;0.88;;;;;;;25.03;63.56;98736.50;5097339;28;20119;-64
2023/08/03 09:36:05;;;;;;;3.60;0.80;;;;;;;24.86;63.67;98734.28;5097222;28;20058;-64
2023/08/03 09:38:34;;;;;;;1.10;1.00;;;;;;;24.79;63.88;98742.69;5096337;28;20505;-63
2023/08/03 09:41:05;;;;;;;2.47;0.63;;;;;;;24.71;64.97;98745.84;5097603;28;20044;-64
2023/08/03 09:43:35;;;;;;;0.45;0.45;;;;;;;24.71;64.96;98751.06;5097200;28;20047;-64
2023/08/03 09:46:04;;;;;;;0.70;0.70;;;;;;;24.70;65.21;98749.41;5097107;28;20060;-64
2023/08/03 09:48:33;;;;;;;1.48;0.80;;;;;;;24.66;64.50;98747.97;5097453;28;20040;-64
2023/08/03 09:51:05;;;;;;;0.50;0.50;;;;;;;24.57;63.91;98746.03;5097200;28;20054;-64
2023/08/03 09:53:38;;;;;;;0.55;0.55;;;;;;;24.54;63.75;98754.06;5096968;28;20048;-64
2023/08/03 09:56:10;;;;;;;0.60;0.60;;;;;;;24.52;63.63;98761.19;5096943;28;20050;-63
2023/08/03 09:58:53;;;;;;;0.57;0.57;;;;;;;24.51;63.31;98764.72;5096972;28;20098;-64
2023/08/03 10:01:29;;;;;;;0.50;0.50;;;;;;;24.46;62.92;98766.81;5096907;28;20089;-63
2023/08/03 10:04:04;;;;;;;0.40;0.40;;;;;;;24.40;62.82;98762.06;5096907;28;20101;-63
2023/08/03 10:06:36;;;;;;;0.98;0.82;;;;;;;24.35;62.57;98769.38;5097414;28;20075;-63
2023/08/03 10:09:07;;;;;;;0.40;0.40;;;;;;;24.31;62.96;98773.97;5095787;28;20040;-64
2023/08/03 10:11:43;;;;;;;0.50;0.50;;;;;;;24.27;62.97;98776.91;5096759;28;20044;-64
2023/08/03 10:14:18;;;;;;;0.50;0.50;;;;;;;24.24;63.00;98766.69;5096854;28;20494;-65
2023/08/03 10:16:47;;;;;;;0.75;0.75;;;;;;;24.21;63.25;98769.53;5096619;28;20048;-64
2023/08/03 10:19:18;;;;;;;0.50;0.50;;;;;;;24.22;63.31;98773.78;5096478;28;20072;-64
2023/08/03 10:21:47;;;;;;;1.95;1.02;;;;;;;24.17;62.95;98783.72;5096820;28;20036;-64
2023/08/03 10:24:17;;;;;;;2.17;1.20;;;;;;;24.14;63.16;98786.56;5096479;28;20510;-64
2023/08/03 10:26:54;;;;;;;1.27;1.17;;;;;;;24.10;63.03;98792.91;5096613;28;20058;-64
2023/08/03 10:29:46;;;;;;;0.50;0.50;;;;;;;24.04;62.53;98793.31;5096957;28;20074;-64
2023/08/03 10:32:21;;;;;;;0.63;0.63;;;;;;;23.92;61.68;98793.22;5096180;28;20375;-64
2023/08/03 10:34:52;;;;;;;0.80;0.80;;;;;;;23.89;61.34;98788.22;5095695;28;20139;-64
2023/08/03 10:37:21;;;;;;;0.45;0.45;;;;;;;23.88;60.74;98796.97;5096265;28;20060;-64
2023/08/03 10:39:56;;;;;;;1.15;1.05;;;;;;;23.85;60.50;98807.59;5096449;28;20086;-64
2023/08/03 10:42:29;;;;;;;0.43;0.43;;;;;;;23.87;60.76;98810.94;5096525;28;20123;-64
2023/08/03 10:45:24;;;;;;;0.70;0.70;;;;;;;23.81;60.00;98800.09;5096036;28;20044;-64
2023/08/03 10:47:54;;;;;;;1.17;0.88;;;;;;;23.78;60.13;98801.16;5095543;28;20058;-64
2023/08/03 10:50:59;;;;;;;0.40;0.40;;;;;;;23.77;60.18;98794.28;5095947;28;20054;-64
2023/08/03 10:53:28;;;;;;;0.60;0.60;;;;;;;23.76;60.54;98792.59;5095911;28;20048;-64
2023/08/03 10:56:08;;;;;;;0.40;0.40;;;;;;;23.77;60.55;98789.06;5095719;28;20050;-64
2023/08/03 10:58:48;;;;;;;0.47;0.47;;;;;;;23.75;60.81;98796.16;5095762;28;20072;-64
2023/08/03 11:01:22;;;;;;;2.08;1.23;;;;;;;23.74;60.82;98799.69;5096244;28;20463;-65
2023/08/03 11:03:53;;;;;;;0.60;0.60;;;;;;;23.72;60.91;98785.94;5096077;28;20405;-63
2023/08/03 11:06:24;;;;;;;0.45;0.45;;;;;;;23.64;61.07;98783.00;5094920;28;20040;-63
2023/08/03 11:08:54;;;;;;;0.95;0.85;;;;;;;23.61;62.24;98791.03;5096020;28;20044;-64
2023/08/03 11:11:23;;;;;;;0.75;0.75;;;;;;;23.56;63.21;98795.75;5095632;28;20397;-64
2023/08/03 11:13:54;;;;;;;1.40;0.95;;;;;;;23.51;64.38;98803.03;5095377;28;20063;-64
2023/08/03 11:16:23;;;;;;;0.80;0.80;;;;;;;23.49;65.13;98799.69;5095551;28;20481;-63
2023/08/03 11:18:52;;;;;;;2.13;0.68;;;;;;;23.44;66.78;98806.16;5095694;28;20043;-64
2023/08/03 11:21:21;;;;;;;;;;;;;;;23.40;68.11;98813.31;5095864;28;20047;-64
2023/08/03 11:23:52;;;;;;;0.63;0.63;;;;;;;23.34;69.44;98816.31;5095288;28;19985;-64
2023/08/03 11:26:21;;;;;;;0.70;0.70;;;;;;;23.27;70.63;98809.84;5095216;28;20047;-64
2023/08/03 11:28:50;;;;;;;0.85;0.82;;;;;;;23.19;70.70;98827.75;5095238;28;20039;-64
2023/08/03 11:31:22;;;;;;;1.23;1.13;;;;;;;23.12;70.68;98847.31;5095426;28;20498;-64
2023/08/03 11:33:52;;;;;;;2.00;1.25;;;;;;;23.06;70.84;98845.91;5095123;28;20044;-64
2023/08/03 11:36:22;;;;;;;0.50;0.50;;;;;;;23.05;71.15;98840.81;5094741;28;20091;-64
2023/08/03 11:38:53;;;;;;;0.57;0.57;;;;;;;22.96;70.75;98836.22;5095052;28;20076;-64
2023/08/03 11:41:24;;;;;;;0.73;0.60;;;;;;;22.93;69.70;98833.81;5095026;28;20071;-64
2023/08/03 11:43:56;;;;;;;0.57;0.57;;;;;;;22.87;68.39;98837.63;5094818;28;20101;-64
2023/08/03 11:46:29;;;;;;;0.60;0.60;;;;;;;22.82;67.82;98849.28;5095760;28;20398;-64
2023/08/03 11:48:58;;;;;;;0.70;0.70;;;;;;;22.77;68.26;98851.34;5094777;28;20048;-64
2023/08/03 11:51:34;;;;;;;0.63;0.63;;;;;;;22.76;68.36;98862.69;5094792;28;20048;-64